createdAt,value
2018-12-06T00:01:12.688Z,-11.67
2018-12-06T00:03:52.373Z,-11.63
2018-12-06T00:06:31.555Z,-11.89
2018-12-06T00:09:10.923Z,-11.97
2018-12-06T00:11:50.175Z,-12.00
2018-12-06T00:14:29.829Z,-11.97
2018-12-06T00:17:10.682Z,-11.88
2018-12-06T00:19:52.640Z,-11.69
2018-12-06T00:22:32.188Z,-11.71
2018-12-06T00:25:15.412Z,-11.72
2018-12-06T00:27:54.564Z,-11.68
2018-12-06T00:30:43.139Z,-11.94
2018-12-06T00:33:23.011Z,-11.73
2018-12-06T00:36:04.560Z,-11.80
2018-12-06T00:38:43.866Z,-11.77
2018-12-06T00:41:23.946Z,-11.79
2018-12-06T00:44:03.247Z,-11.95
2018-12-06T00:46:44.498Z,-11.48
2018-12-06T00:49:24.398Z,-11.54
2018-12-06T00:52:04.675Z,-11.63
2018-12-06T00:54:46.467Z,-11.69
2018-12-06T00:57:26.733Z,-11.86
2018-12-06T01:00:06.164Z,-11.87
2018-12-06T01:02:45.040Z,-11.66
2018-12-06T01:05:24.395Z,-11.55
2018-12-06T01:08:05.618Z,-11.58
2018-12-06T01:10:44.862Z,-11.91
2018-12-06T01:13:28.562Z,-11.98
2018-12-06T01:16:08.019Z,-12.21
2018-12-06T01:18:47.120Z,-11.90
2018-12-06T01:21:26.520Z,-11.76
2018-12-06T01:24:15.781Z,-11.69
2018-12-06T01:26:55.259Z,-11.60
2018-12-06T01:29:34.580Z,-11.68
2018-12-06T01:32:16.420Z,-11.53
2018-12-06T01:34:57.426Z,-11.54
2018-12-06T01:37:38.828Z,-11.46
2018-12-06T01:43:13.429Z,-11.24
2018-12-06T01:45:52.495Z,-11.40
2018-12-06T01:48:31.970Z,-11.08
2018-12-06T01:51:12.455Z,-10.91
2018-12-06T01:53:51.750Z,-11.05
2018-12-06T01:56:32.005Z,-10.60
2018-12-06T01:59:12.521Z,-10.21
2018-12-06T02:01:52.055Z,-10.26
2018-12-06T02:04:31.198Z,-10.82
2018-12-06T02:07:10.509Z,-10.73
2018-12-06T02:09:49.670Z,-10.95
2018-12-06T02:12:28.831Z,-10.87
2018-12-06T02:15:08.810Z,-10.77
2018-12-06T02:17:47.773Z,-10.41
2018-12-06T02:20:28.055Z,-10.42
2018-12-06T02:23:08.201Z,-10.40
2018-12-06T02:25:48.886Z,-10.55
2018-12-06T02:28:28.159Z,-10.40
2018-12-06T02:31:07.620Z,-10.27
2018-12-06T02:33:46.509Z,-10.41
2018-12-06T02:36:25.796Z,-10.15
2018-12-06T02:39:05.389Z,-9.98
2018-12-06T02:41:44.481Z,-10.06
2018-12-06T02:44:23.585Z,-9.91
2018-12-06T02:47:02.949Z,-10.10
2018-12-06T02:49:42.380Z,-10.11
2018-12-06T02:52:22.394Z,-10.46
2018-12-06T02:55:01.337Z,-10.54
2018-12-06T02:57:41.122Z,-10.74
2018-12-06T03:00:20.363Z,-10.05
2018-12-06T03:02:59.189Z,-9.95
2018-12-06T03:05:37.951Z,-9.89
2018-12-06T03:08:16.975Z,-9.60
2018-12-06T03:10:55.786Z,-9.95
2018-12-06T03:13:35.526Z,-9.87
2018-12-06T03:16:16.097Z,-9.24
2018-12-06T03:18:54.969Z,-9.04
2018-12-06T03:21:34.687Z,-9.08
2018-12-06T03:24:14.097Z,-9.33
2018-12-06T03:26:53.616Z,-9.96
2018-12-06T03:29:32.985Z,-9.94
2018-12-06T03:32:13.453Z,-9.99
2018-12-06T03:34:52.529Z,-9.64
2018-12-06T03:37:31.435Z,-9.70
2018-12-06T03:40:10.334Z,-9.51
2018-12-06T03:42:49.134Z,-9.46
2018-12-06T03:45:28.402Z,-9.55
2018-12-06T03:48:08.277Z,-9.39
2018-12-06T03:50:48.080Z,-9.53
2018-12-06T03:53:26.804Z,-9.25
2018-12-06T03:56:05.757Z,-9.90
2018-12-06T03:58:48.049Z,-9.55
2018-12-06T04:01:27.437Z,-9.57
2018-12-06T04:04:06.567Z,-9.50
2018-12-06T04:06:45.314Z,-9.38
2018-12-06T04:09:25.675Z,-9.11
2018-12-06T04:12:04.993Z,-9.33
2018-12-06T04:14:43.879Z,-9.51
2018-12-06T04:17:25.221Z,-9.45
2018-12-06T04:20:04.406Z,-9.37
2018-12-06T04:22:44.607Z,-9.51
2018-12-06T04:25:23.718Z,-9.44
2018-12-06T04:28:02.786Z,-9.36
2018-12-06T04:30:43.412Z,-9.60
2018-12-06T04:33:23.847Z,-9.40
2018-12-06T04:36:03.151Z,-9.38
2018-12-06T04:38:43.478Z,-9.39
2018-12-06T04:41:23.371Z,-9.57
2018-12-06T04:44:03.426Z,-9.04
2018-12-06T04:46:43.521Z,-8.85
2018-12-06T04:49:22.471Z,-9.08
2018-12-06T04:52:01.647Z,-9.09
2018-12-06T04:54:40.720Z,-9.56
2018-12-06T04:57:20.526Z,-9.86
2018-12-06T05:00:00.017Z,-9.51
2018-12-06T05:02:39.555Z,-9.54
2018-12-06T05:05:19.851Z,-9.45
2018-12-06T05:08:01.779Z,-9.40
2018-12-06T05:10:41.754Z,-9.55
2018-12-06T05:13:20.924Z,-9.81
2018-12-06T05:16:00.055Z,-9.72
2018-12-06T05:18:39.098Z,-10.22
2018-12-06T05:21:20.339Z,-9.90
2018-12-06T05:24:00.149Z,-9.99
2018-12-06T05:26:39.170Z,-10.10
2018-12-06T05:29:18.224Z,-9.98
2018-12-06T05:31:58.168Z,-9.79
2018-12-06T05:34:37.311Z,-9.73
2018-12-06T05:37:16.671Z,-9.79
2018-12-06T05:39:56.899Z,-10.02
2018-12-06T05:42:36.097Z,-9.71
2018-12-06T05:45:31.412Z,-9.89
2018-12-06T05:48:10.496Z,-10.07
2018-12-06T05:50:50.391Z,-10.22
2018-12-06T05:53:30.337Z,-10.50
2018-12-06T05:56:09.352Z,-10.43
2018-12-06T05:58:49.579Z,-10.54
2018-12-06T06:01:28.717Z,-10.55
2018-12-06T06:04:09.032Z,-10.62
2018-12-06T06:06:48.924Z,-10.59
2018-12-06T06:09:27.973Z,-10.70
2018-12-06T06:12:07.106Z,-10.77
2018-12-06T06:14:46.937Z,-10.79
2018-12-06T06:17:25.850Z,-10.61
2018-12-06T06:20:06.355Z,-10.47
2018-12-06T06:22:46.107Z,-10.48
2018-12-06T06:25:27.004Z,-10.47
2018-12-06T06:28:05.825Z,-10.53
2018-12-06T06:30:44.574Z,-10.89
2018-12-06T06:33:23.519Z,-11.06
2018-12-06T06:36:02.587Z,-11.05
2018-12-06T06:38:41.559Z,-10.99
2018-12-06T06:41:20.538Z,-10.89
2018-12-06T06:43:59.583Z,-11.02
2018-12-06T06:46:38.716Z,-11.07
2018-12-06T06:49:17.818Z,-11.25
2018-12-06T06:51:57.137Z,-11.26
2018-12-06T06:54:37.365Z,-11.09
2018-12-06T06:57:19.720Z,-11.15
2018-12-06T06:59:58.503Z,-11.35
2018-12-06T07:02:37.510Z,-11.29
2018-12-06T07:05:16.523Z,-11.07
2018-12-06T07:07:55.456Z,-11.38
2018-12-06T07:10:35.120Z,-11.39
2018-12-06T07:13:14.214Z,-11.44
2018-12-06T07:15:53.295Z,-11.13
2018-12-06T07:18:32.561Z,-11.25
2018-12-06T07:21:12.563Z,-11.51
2018-12-06T07:23:52.507Z,-11.55
2018-12-06T07:26:33.955Z,-11.50
2018-12-06T07:29:14.053Z,-11.49
2018-12-06T07:31:53.044Z,-11.62
2018-12-06T07:34:32.341Z,-11.55
2018-12-06T07:37:12.868Z,-11.58
2018-12-06T07:39:53.232Z,-11.58
2018-12-06T07:42:32.485Z,-11.40
2018-12-06T07:45:12.613Z,-11.54
2018-12-06T07:47:51.916Z,-11.52
2018-12-06T07:50:32.282Z,-11.76
2018-12-06T07:53:11.547Z,-11.84
2018-12-06T07:55:50.999Z,-11.92
2018-12-06T07:58:30.512Z,-12.08
2018-12-06T08:01:10.565Z,-11.96
2018-12-06T08:03:51.999Z,-11.90
2018-12-06T08:06:31.845Z,-11.89
2018-12-06T08:09:15.732Z,-11.86
2018-12-06T08:11:57.303Z,-11.84
2018-12-06T08:14:40.964Z,-11.59
2018-12-06T08:17:25.916Z,-11.81
2018-12-06T08:20:10.697Z,-11.90
2018-12-06T08:22:55.125Z,-11.83
2018-12-06T08:25:38.673Z,-11.62
2018-12-06T08:28:21.951Z,-11.88
2018-12-06T08:31:05.605Z,-11.78
2018-12-06T08:34:21.412Z,-11.59
2018-12-06T08:37:11.918Z,-11.70
2018-12-06T08:39:53.135Z,-11.69
2018-12-06T08:42:36.184Z,-11.62
2018-12-06T08:45:17.832Z,-11.75
2018-12-06T08:48:10.768Z,-11.63
2018-12-06T08:50:52.109Z,-11.72
2018-12-06T08:53:35.848Z,-11.93
2018-12-06T08:56:21.532Z,-11.77
2018-12-06T08:59:06.004Z,-11.98
2018-12-06T09:01:52.743Z,-12.20
2018-12-06T09:04:34.275Z,-12.25
2018-12-06T09:07:17.908Z,-11.96
2018-12-06T09:14:13.180Z,-12.06
2018-12-06T09:24:05.634Z,-12.05
2018-12-06T09:26:58.494Z,-12.02
2018-12-06T09:29:40.601Z,-12.10
2018-12-06T09:35:09.258Z,-12.04
2018-12-06T09:37:50.922Z,-11.99
2018-12-06T09:40:33.201Z,-12.04
2018-12-06T09:43:15.639Z,-12.01
2018-12-06T09:46:10.680Z,-11.95
2018-12-06T09:48:54.172Z,-11.87
2018-12-06T09:51:36.656Z,-11.80
2018-12-06T09:54:19.880Z,-12.08
2018-12-06T09:57:05.009Z,-12.06
2018-12-06T09:59:49.329Z,-12.29
2018-12-06T10:02:34.472Z,-12.13
2018-12-06T10:05:19.443Z,-12.22
2018-12-06T10:08:04.768Z,-12.34
2018-12-06T10:10:48.249Z,-12.17
2018-12-06T10:13:31.824Z,-12.31
2018-12-06T10:16:14.575Z,-12.50
2018-12-06T10:18:59.388Z,-12.44
2018-12-06T10:21:41.802Z,-12.46
2018-12-06T10:24:25.139Z,-12.26
2018-12-06T10:27:12.455Z,-12.31
2018-12-06T10:29:55.695Z,-12.14
2018-12-06T10:32:38.040Z,-12.08
2018-12-06T10:35:25.726Z,-12.31
2018-12-06T10:38:08.903Z,-12.23
2018-12-06T10:40:54.508Z,-12.27
2018-12-06T10:43:37.397Z,-12.48
2018-12-06T10:46:27.009Z,-12.39
2018-12-06T10:49:11.942Z,-12.14
2018-12-06T10:51:56.935Z,-12.12
2018-12-06T10:54:41.108Z,-12.35
2018-12-06T10:57:26.548Z,-12.36
2018-12-06T11:00:08.262Z,-12.33
2018-12-06T11:02:58.805Z,-12.43
2018-12-06T11:05:41.665Z,-12.34
2018-12-06T11:08:25.304Z,-12.59
2018-12-06T11:11:10.483Z,-12.47
2018-12-06T11:13:53.206Z,-12.49
2018-12-06T11:16:40.311Z,-12.70
2018-12-06T11:19:24.597Z,-12.75
2018-12-06T11:22:09.092Z,-12.50
2018-12-06T11:24:52.150Z,-12.38
2018-12-06T11:27:38.536Z,-12.46
2018-12-06T11:30:23.820Z,-12.53
2018-12-06T11:33:08.478Z,-12.63
2018-12-06T11:35:52.474Z,-12.41
2018-12-06T11:38:36.171Z,-12.41
2018-12-06T11:41:20.472Z,-12.47
2018-12-06T11:44:06.232Z,-12.31
2018-12-06T11:46:53.191Z,-12.44
2018-12-06T11:49:41.794Z,-12.35
2018-12-06T11:52:31.957Z,-12.40
2018-12-06T11:55:24.260Z,-12.44
2018-12-06T11:58:48.187Z,-12.54
2018-12-06T12:01:34.982Z,-12.60
2018-12-06T12:04:21.574Z,-12.77
2018-12-06T12:07:06.385Z,-12.78
2018-12-06T12:09:48.385Z,-12.80
2018-12-06T12:12:35.210Z,-12.81
2018-12-06T12:15:18.248Z,-12.71
2018-12-06T12:18:05.935Z,-12.71
2018-12-06T12:20:49.088Z,-12.62
2018-12-06T12:23:33.178Z,-12.63
2018-12-06T12:26:15.213Z,-12.57
2018-12-06T12:29:00.044Z,-12.87
2018-12-06T12:31:44.251Z,-12.90
2018-12-06T12:34:26.189Z,-12.90
2018-12-06T12:37:12.334Z,-12.81
2018-12-06T12:39:59.101Z,-12.75
2018-12-06T12:42:43.381Z,-13.06
2018-12-06T12:45:25.394Z,-12.99
2018-12-06T12:48:10.296Z,-13.01
2018-12-06T12:51:05.767Z,-13.08
2018-12-06T12:53:50.597Z,-13.27
2018-12-06T12:59:32.595Z,-13.15
2018-12-06T13:02:16.383Z,-13.29
2018-12-06T13:05:03.630Z,-13.36
2018-12-06T13:07:47.320Z,-13.23
2018-12-06T13:10:31.883Z,-13.11
2018-12-06T13:13:15.121Z,-13.16
2018-12-06T13:15:58.312Z,-13.25
2018-12-06T13:18:43.447Z,-13.22
2018-12-06T13:21:29.630Z,-13.10
2018-12-06T13:24:11.861Z,-13.38
2018-12-06T13:26:54.358Z,-13.49
2018-12-06T13:29:36.732Z,-13.44
2018-12-06T13:32:21.709Z,-13.12
2018-12-06T13:35:04.114Z,-13.22
2018-12-06T13:37:45.958Z,-13.31
2018-12-06T13:40:27.927Z,-13.36
2018-12-06T13:43:09.123Z,-13.29
2018-12-06T13:45:52.188Z,-13.41
2018-12-06T13:48:36.845Z,-13.30
2018-12-06T13:51:20.146Z,-13.51
2018-12-06T13:54:02.471Z,-13.80
2018-12-06T13:56:43.745Z,-13.92
2018-12-06T13:59:29.694Z,-13.76
2018-12-06T14:02:14.677Z,-13.63
2018-12-06T14:05:00.475Z,-13.58
2018-12-06T14:07:43.014Z,-13.70
2018-12-06T14:10:27.063Z,-13.65
2018-12-06T14:13:09.672Z,-13.52
2018-12-06T14:15:51.607Z,-13.45
2018-12-06T14:18:33.057Z,-13.84
2018-12-06T14:21:13.769Z,-13.95
2018-12-06T14:23:55.216Z,-13.74
2018-12-06T14:26:35.896Z,-13.90
2018-12-06T14:29:16.806Z,-13.92
2018-12-06T14:31:57.803Z,-14.14
2018-12-06T14:34:55.529Z,-13.96
2018-12-06T14:37:38.418Z,-14.09
2018-12-06T14:40:19.374Z,-13.82
2018-12-06T14:43:02.548Z,-14.13
2018-12-06T14:45:43.132Z,-14.25
2018-12-06T14:48:23.719Z,-14.28
2018-12-06T14:51:07.625Z,-14.20
2018-12-06T14:53:50.151Z,-13.99
2018-12-06T14:56:36.698Z,-14.09
2018-12-06T14:59:17.501Z,-14.09
2018-12-06T15:02:00.193Z,-14.25
2018-12-06T15:04:40.607Z,-14.24
2018-12-06T15:07:20.519Z,-14.15
2018-12-06T15:10:05.167Z,-14.07
2018-12-06T15:12:51.747Z,-14.27
2018-12-06T15:15:31.475Z,-14.43
2018-12-06T15:18:11.720Z,-14.22
2018-12-06T15:20:51.498Z,-14.45
2018-12-06T15:23:32.831Z,-14.60
2018-12-06T15:26:11.857Z,-14.70
2018-12-06T15:28:50.961Z,-14.55
2018-12-06T15:31:31.698Z,-14.39
2018-12-06T15:34:11.247Z,-14.68
2018-12-06T15:36:50.314Z,-14.60
2018-12-06T15:39:35.312Z,-14.32
2018-12-06T15:42:15.884Z,-14.53
2018-12-06T15:44:56.723Z,-14.78
2018-12-06T15:47:36.063Z,-14.75
2018-12-06T15:50:15.463Z,-14.84
2018-12-06T15:52:56.545Z,-14.91
2018-12-06T15:55:36.911Z,-14.79
2018-12-06T15:58:18.031Z,-14.76
2018-12-06T16:01:00.628Z,-14.62
2018-12-06T16:03:40.424Z,-14.84
2018-12-06T16:06:19.536Z,-14.82
2018-12-06T16:09:00.826Z,-15.00
2018-12-06T16:11:40.171Z,-14.79
2018-12-06T16:14:19.332Z,-15.05
2018-12-06T16:16:59.344Z,-14.90
2018-12-06T16:19:38.767Z,-14.82
2018-12-06T16:22:18.452Z,-14.65
2018-12-06T16:24:57.980Z,-14.64
2018-12-06T16:27:36.959Z,-15.13
2018-12-06T16:30:16.465Z,-15.14
2018-12-06T16:32:58.634Z,-15.20
2018-12-06T16:35:38.084Z,-14.84
2018-12-06T16:38:17.288Z,-14.88
2018-12-06T16:40:57.526Z,-15.26
2018-12-06T16:43:36.407Z,-15.19
2018-12-06T16:46:15.453Z,-15.16
2018-12-06T16:48:55.460Z,-15.22
2018-12-06T16:51:34.741Z,-15.15
2018-12-06T16:54:14.269Z,-15.22
2018-12-06T16:56:53.499Z,-15.39
2018-12-06T16:59:33.187Z,-15.54
2018-12-06T17:02:12.299Z,-15.36
2018-12-06T17:04:51.252Z,-15.14
2018-12-06T17:07:30.254Z,-15.43
2018-12-06T17:10:09.875Z,-15.48
2018-12-06T17:12:49.869Z,-15.29
2018-12-06T17:15:32.259Z,-15.03
2018-12-06T17:18:11.064Z,-15.38
2018-12-06T17:20:49.889Z,-15.58
2018-12-06T17:23:28.839Z,-15.65
2018-12-06T17:26:08.926Z,-15.59
2018-12-06T17:28:47.677Z,-15.84
2018-12-06T17:31:27.989Z,-15.89
2018-12-06T17:34:06.632Z,-15.82
2018-12-06T17:36:45.734Z,-15.81
2018-12-06T17:39:26.976Z,-15.51
2018-12-06T17:42:05.773Z,-15.41
2018-12-06T17:44:44.506Z,-15.61
2018-12-06T17:47:23.714Z,-15.90
2018-12-06T17:50:02.513Z,-16.09
2018-12-06T17:52:42.082Z,-15.87
2018-12-06T17:55:20.870Z,-15.77
2018-12-06T17:58:01.493Z,-15.56
2018-12-06T18:00:40.767Z,-15.67
2018-12-06T18:03:19.602Z,-15.65
2018-12-06T18:05:59.309Z,-15.59
2018-12-06T18:08:38.267Z,-15.54
2018-12-06T18:11:18.011Z,-16.00
2018-12-06T18:13:57.677Z,-15.77
2018-12-06T18:16:37.534Z,-15.91
2018-12-06T18:19:17.645Z,-16.14
2018-12-06T18:21:58.189Z,-16.11
2018-12-06T18:24:37.392Z,-15.75
2018-12-06T18:27:18.943Z,-16.14
2018-12-06T18:29:57.957Z,-15.93
2018-12-06T18:32:36.939Z,-16.12
2018-12-06T18:35:15.817Z,-16.36
2018-12-06T18:37:55.069Z,-15.95
2018-12-06T18:40:34.446Z,-15.89
2018-12-06T18:43:14.015Z,-15.90
2018-12-06T18:45:53.001Z,-16.11
2018-12-06T18:48:32.129Z,-15.97
2018-12-06T18:51:12.725Z,-16.10
2018-12-06T18:53:53.525Z,-16.21
2018-12-06T18:56:32.571Z,-16.02
2018-12-06T18:59:13.093Z,-15.85
2018-12-06T19:01:52.491Z,-16.09
2018-12-06T19:04:32.011Z,-16.04
2018-12-06T19:07:11.183Z,-16.19
2018-12-06T19:09:50.210Z,-15.95
2018-12-06T19:12:35.762Z,-16.28
2018-12-06T19:15:14.539Z,-16.23
2018-12-06T19:17:54.703Z,-16.04
2018-12-06T19:20:33.525Z,-16.20
2018-12-06T19:23:13.023Z,-16.36
2018-12-06T19:25:52.986Z,-16.29
2018-12-06T19:28:31.814Z,-16.64
2018-12-06T19:31:10.537Z,-16.57
2018-12-06T19:33:49.793Z,-16.48
2018-12-06T19:36:29.055Z,-16.49
2018-12-06T19:39:08.055Z,-16.50
2018-12-06T19:41:46.703Z,-16.41
2018-12-06T19:44:25.908Z,-16.38
2018-12-06T19:47:04.518Z,-16.66
2018-12-06T19:49:44.266Z,-16.62
2018-12-06T19:52:22.975Z,-16.69
2018-12-06T19:55:01.503Z,-16.72
2018-12-06T19:57:40.787Z,-16.67
2018-12-06T20:00:50.558Z,-16.70
2018-12-06T20:03:29.321Z,-16.53
2018-12-06T20:06:17.179Z,-16.63
2018-12-06T20:08:59.722Z,-16.73
2018-12-06T20:11:38.591Z,-16.52
2018-12-06T20:14:17.614Z,-16.75
2018-12-06T20:16:56.598Z,-17.19
2018-12-06T20:19:35.327Z,-17.12
2018-12-06T20:22:15.206Z,-16.90
2018-12-06T20:24:54.730Z,-16.80
2018-12-06T20:27:33.733Z,-16.90
2018-12-06T20:30:14.047Z,-17.15
2018-12-06T20:32:53.212Z,-17.18
2018-12-06T20:35:32.131Z,-17.24
2018-12-06T20:38:12.529Z,-16.90
2018-12-06T20:40:53.030Z,-17.14
2018-12-06T20:43:32.127Z,-17.23
2018-12-06T20:46:12.170Z,-17.23
2018-12-06T20:48:51.490Z,-17.21
2018-12-06T20:51:31.232Z,-17.23
2018-12-06T20:54:10.307Z,-17.04
2018-12-06T20:56:49.164Z,-16.89
2018-12-06T20:59:27.979Z,-17.39
2018-12-06T21:02:07.121Z,-17.14
2018-12-06T21:04:46.085Z,-17.19
2018-12-06T21:07:24.885Z,-17.11
2018-12-06T21:10:03.511Z,-17.34
2018-12-06T21:12:43.459Z,-17.22
2018-12-06T21:15:22.905Z,-17.63
2018-12-06T21:18:05.881Z,-17.48
2018-12-06T21:20:45.857Z,-17.48
2018-12-06T21:23:24.591Z,-17.23
2018-12-06T21:26:04.365Z,-17.48
2018-12-06T21:28:43.248Z,-17.33
2018-12-06T21:31:21.978Z,-17.47
2018-12-06T21:34:00.895Z,-17.10
2018-12-06T21:36:39.593Z,-16.97
2018-12-06T21:39:18.392Z,-17.29
2018-12-06T21:41:57.181Z,-17.41
2018-12-06T21:44:35.957Z,-17.20
2018-12-06T21:47:18.267Z,-17.24
2018-12-06T21:49:57.081Z,-17.09
2018-12-06T21:52:37.359Z,-17.00
2018-12-06T21:55:16.701Z,-16.94
2018-12-06T21:57:56.508Z,-16.96
2018-12-06T22:00:35.162Z,-17.06
2018-12-06T22:03:14.733Z,-17.35
2018-12-06T22:05:53.697Z,-17.13
2018-12-06T22:08:32.541Z,-16.98
2018-12-06T22:11:11.974Z,-17.33
2018-12-06T22:13:50.873Z,-17.64
2018-12-06T22:16:29.610Z,-17.19
2018-12-06T22:19:08.354Z,-17.22
2018-12-06T22:21:47.472Z,-17.46
2018-12-06T22:24:26.249Z,-17.68
2018-12-06T22:27:05.042Z,-17.64
2018-12-06T22:29:45.239Z,-17.57
2018-12-06T22:32:24.244Z,-17.36
2018-12-06T22:35:03.093Z,-17.51
2018-12-06T22:37:42.559Z,-17.60
2018-12-06T22:40:21.334Z,-17.74
2018-12-06T22:43:00.109Z,-17.56
2018-12-06T22:46:16.036Z,-17.53
2018-12-06T22:48:56.385Z,-17.50
2018-12-06T22:51:35.225Z,-17.74
2018-12-06T22:54:13.864Z,-17.75
2018-12-06T22:56:52.539Z,-17.66
2018-12-06T22:59:31.098Z,-17.78
2018-12-06T23:02:10.024Z,-17.60
2018-12-06T23:04:48.708Z,-17.69
2018-12-06T23:07:27.481Z,-17.89
2018-12-06T23:10:06.511Z,-17.88
2018-12-06T23:12:52.204Z,-17.75
2018-12-06T23:15:31.107Z,-17.58
2018-12-06T23:18:09.985Z,-17.50
2018-12-06T23:20:49.076Z,-17.33
2018-12-06T23:23:28.276Z,-17.86
2018-12-06T23:26:09.567Z,-17.71
2018-12-06T23:28:48.334Z,-17.73
2018-12-06T23:31:27.223Z,-17.82
2018-12-06T23:34:06.121Z,-17.65
2018-12-06T23:36:45.847Z,-17.66
2018-12-06T23:39:26.084Z,-17.79
2018-12-06T23:42:04.995Z,-17.62
2018-12-06T23:44:45.654Z,-17.50
2018-12-06T23:47:24.566Z,-17.50
2018-12-06T23:50:04.399Z,-17.79
2018-12-06T23:52:43.328Z,-18.16
2018-12-06T23:55:23.238Z,-18.08
2018-12-06T23:58:01.742Z,-17.72
